Time;durP1;ratioP1;P1;durP2;ratioP2;P2;SDS_P1;SDS_P2;PMS_P1;PMS_P2;Temp;Humidity;BMP_temperature;BMP_pressure;BME280_temperature;BME280_humidity;BME280_pressure;Samples;Min_cycle;Max_cycle;Signal;HPM_P1;HPM_P2
2024/04/19 00:01:13;;;;;;;1.60;1.50;;;;;;;5.80;63.31;92792.22;2027679;70;20139;-70
2024/04/19 00:03:38;;;;;;;1.60;1.40;;;;;;;5.77;64.14;92787.81;2027712;70;20161;-73
2024/04/19 00:06:04;;;;;;;2.58;1.40;;;;;;;5.81;64.13;92795.75;2027759;70;20205;-68
2024/04/19 00:08:30;;;;;;;3.08;1.65;;;;;;;5.68;65.42;92791.25;2027839;70;20240;-70
2024/04/19 00:10:56;;;;;;;4.43;1.55;;;;;;;5.57;65.35;92786.16;2027820;70;20148;-69
2024/04/19 00:13:22;;;;;;;1.23;1.10;;;;;;;5.55;65.09;92781.16;2028384;70;20149;-69
2024/04/19 00:15:48;;;;;;;2.40;1.45;;;;;;;5.56;64.67;92779.13;2024744;70;20578;-71
2024/04/19 00:18:13;;;;;;;2.33;1.50;;;;;;;5.46;65.07;92789.47;2024569;70;20144;-70
2024/04/19 00:20:39;;;;;;;2.50;1.45;;;;;;;5.40;64.73;92794.56;2028297;70;20156;-69
2024/04/19 00:23:08;;;;;;;2.28;1.38;;;;;;;5.44;64.63;92786.50;2028424;70;20260;-70
2024/04/19 00:25:34;;;;;;;1.80;1.23;;;;;;;5.42;64.56;92791.94;2024665;70;20239;-70
2024/04/19 00:28:00;;;;;;;1.35;1.25;;;;;;;5.39;64.13;92785.44;2028168;70;20204;-70
2024/04/19 00:30:27;;;;;;;1.67;1.30;;;;;;;5.41;64.48;92791.19;2028239;70;20590;-72
2024/04/19 00:32:52;;;;;;;1.67;1.40;;;;;;;5.47;64.58;92779.78;2028354;70;20149;-70
2024/04/19 00:35:21;;;;;;;2.35;1.52;;;;;;;5.32;64.83;92761.16;2024615;70;20157;-70
2024/04/19 00:37:47;;;;;;;1.75;1.55;;;;;;;5.40;64.85;92781.31;2028595;70;20161;-70
2024/04/19 00:40:31;;;;;;;3.15;1.60;;;;;;;5.50;64.60;92784.94;2028397;70;20629;-71
2024/04/19 00:42:58;;;;;;;2.78;1.42;;;;;;;5.48;64.86;92770.81;2028346;70;20240;-72
2024/04/19 00:45:35;;;;;;;1.75;1.50;;;;;;;5.43;65.50;92777.38;2028152;70;20607;-68
2024/04/19 00:48:09;;;;;;;2.05;1.25;;;;;;;5.39;64.92;92762.38;2028056;70;20633;-69
2024/04/19 00:50:58;;;;;;;1.90;1.40;;;;;;;5.34;65.42;92767.63;2028322;70;20598;-70
2024/04/19 00:53:27;;;;;;;1.98;1.30;;;;;;;5.36;65.51;92767.06;2028127;70;20240;-69
2024/04/19 00:55:58;;;;;;;2.97;1.45;;;;;;;5.43;65.67;92766.22;2028011;70;20163;-70
2024/04/19 00:58:26;;;;;;;2.38;1.50;;;;;;;5.43;66.15;92769.00;2028150;70;20145;-69
2024/04/19 01:00:52;;;;;;;1.38;1.25;;;;;;;5.39;66.00;92763.09;2028149;70;20203;-70
2024/04/19 01:03:18;;;;;;;1.70;1.40;;;;;;;5.26;66.00;92746.69;2028197;70;20161;-70
2024/04/19 01:05:50;;;;;;;1.85;1.30;;;;;;;5.56;64.24;92765.88;2028236;70;20252;-70
2024/04/19 01:08:26;;;;;;;2.35;1.50;;;;;;;5.47;64.18;92768.59;2028230;70;20152;-70
2024/04/19 01:10:56;;;;;;;2.15;1.30;;;;;;;5.40;64.52;92750.63;2028206;70;20160;-70
2024/04/19 01:13:23;;;;;;;2.05;1.50;;;;;;;5.55;64.28;92770.00;2028346;70;20176;-70
2024/04/19 01:15:49;;;;;;;2.38;1.42;;;;;;;5.54;65.33;92760.16;2028006;70;20243;-71
2024/04/19 01:18:15;;;;;;;2.20;1.48;;;;;;;5.50;65.94;92759.81;2027920;70;20204;-69
2024/04/19 01:20:43;;;;;;;2.13;1.48;;;;;;;5.44;65.86;92753.72;2028066;70;20178;-69
2024/04/19 01:23:09;;;;;;;1.75;1.23;;;;;;;5.48;65.71;92748.47;2027865;70;20250;-69
2024/04/19 01:25:37;;;;;;;2.22;1.30;;;;;;;5.38;67.09;92746.94;2027963;70;20655;-70
2024/04/19 01:28:10;;;;;;;1.85;1.40;;;;;;;5.44;66.21;92745.34;2021948;70;20614;-70
2024/04/19 01:30:39;;;;;;;2.25;1.55;;;;;;;5.41;65.35;92746.53;2028314;70;20155;-71
2024/04/19 01:33:04;;;;;;;1.77;1.40;;;;;;;5.43;65.16;92740.34;2028276;70;20232;-69
2024/04/19 01:35:30;;;;;;;2.28;1.70;;;;;;;5.41;66.20;92748.59;2028254;70;20699;-69
2024/04/19 01:37:56;;;;;;;1.88;1.40;;;;;;;5.42;66.13;92744.47;2028090;70;20767;-70
2024/04/19 01:40:21;;;;;;;3.10;1.60;;;;;;;5.47;66.42;92752.59;2028367;70;20231;-69
2024/04/19 01:42:47;;;;;;;2.50;1.67;;;;;;;5.58;65.59;92754.84;2028280;70;20137;-69
2024/04/19 01:45:13;;;;;;;2.38;1.50;;;;;;;5.43;67.28;92743.88;2028128;70;20148;-70
2024/04/19 01:47:39;;;;;;;1.60;1.50;;;;;;;5.57;66.25;92750.59;2024580;70;20164;-70
2024/04/19 01:50:06;;;;;;;3.45;1.50;;;;;;;5.58;66.50;92740.91;2028236;70;20499;-71
2024/04/19 01:52:32;;;;;;;3.53;1.88;;;;;;;5.50;65.89;92726.31;2027998;70;20145;-69
2024/04/19 01:54:57;;;;;;;2.72;1.80;;;;;;;5.60;66.23;92740.34;2028346;70;20605;-69
2024/04/19 01:57:23;;;;;;;1.85;1.45;;;;;;;5.40;66.55;92736.66;2028261;70;20193;-70
2024/04/19 01:59:48;;;;;;;3.08;1.95;;;;;;;5.37;66.99;92732.25;2028258;70;20196;-72
2024/04/19 02:02:14;;;;;;;2.47;1.50;;;;;;;5.38;66.16;92730.19;2028253;70;20160;-69
2024/04/19 02:04:40;;;;;;;4.82;1.73;;;;;;;5.31;67.11;92735.28;2028435;70;20176;-70
2024/04/19 02:07:05;;;;;;;2.33;1.60;;;;;;;5.30;67.15;92739.38;2028316;70;20595;-72
2024/04/19 02:09:35;;;;;;;1.95;1.58;;;;;;;5.31;66.16;92732.50;2028262;70;20180;-72
2024/04/19 02:12:01;;;;;;;3.45;1.60;;;;;;;5.18;67.36;92723.69;2024916;70;20181;-71
2024/04/19 02:14:26;;;;;;;2.35;1.55;;;;;;;5.17;67.61;92730.59;2028318;70;20252;-70
2024/04/19 02:16:52;;;;;;;2.10;1.23;;;;;;;5.32;66.12;92733.25;2028355;70;20244;-70
2024/04/19 02:19:19;;;;;;;1.80;1.60;;;;;;;5.22;66.43;92735.19;2028209;70;20157;-70
2024/04/19 02:21:45;;;;;;;2.45;1.70;;;;;;;5.17;65.41;92731.34;2028068;70;20156;-70
2024/04/19 02:24:11;;;;;;;2.53;1.55;;;;;;;5.10;66.37;92737.75;2027861;70;20195;-70
2024/04/19 02:26:36;;;;;;;2.67;1.60;;;;;;;5.07;66.40;92730.53;2028204;70;20160;-70
2024/04/19 02:31:46;;;;;;;2.00;1.55;;;;;;;4.97;67.23;92729.72;2028249;70;20852;-70
2024/04/19 02:34:12;;;;;;;4.57;2.38;;;;;;;4.57;67.54;92727.84;2028204;70;20169;-71
2024/04/19 02:36:38;;;;;;;6.57;2.30;;;;;;;4.41;68.27;92732.09;2028113;70;20149;-70
2024/04/19 02:39:03;;;;;;;3.53;2.10;;;;;;;4.23;69.56;92726.47;2024686;70;20163;-70
2024/04/19 02:41:29;;;;;;;3.08;2.20;;;;;;;4.72;66.97;92710.22;2028040;70;20235;-70
2024/04/19 02:43:54;;;;;;;2.95;2.10;;;;;;;4.73;67.07;92711.72;2027986;70;20149;-70
2024/04/19 02:46:20;;;;;;;2.75;1.80;;;;;;;4.61;66.95;92719.09;2028197;70;20152;-69
2024/04/19 02:48:46;;;;;;;1.75;1.50;;;;;;;4.72;66.74;92716.56;2028113;70;20160;-70
2024/04/19 02:51:11;;;;;;;2.35;1.90;;;;;;;4.72;66.61;92721.38;2024649;70;20175;-70
2024/04/19 02:53:37;;;;;;;2.25;1.40;;;;;;;4.69;66.71;92714.91;2028220;70;20236;-71
2024/04/19 02:56:05;;;;;;;3.25;2.00;;;;;;;4.64;67.11;92713.13;2028207;70;20636;-70
2024/04/19 02:58:30;;;;;;;3.35;2.00;;;;;;;4.65;67.44;92717.38;2028301;70;20224;-70
2024/04/19 03:00:56;;;;;;;1.90;1.70;;;;;;;4.55;67.65;92716.53;2027861;70;20194;-70
2024/04/19 03:03:22;;;;;;;3.40;2.33;;;;;;;4.05;68.07;92711.75;2028164;70;20156;-70
2024/04/19 03:05:47;;;;;;;3.13;2.08;;;;;;;4.21;67.44;92703.25;2024623;70;20161;-70
2024/04/19 03:08:13;;;;;;;4.57;2.17;;;;;;;4.23;67.73;92693.03;2024585;70;20633;-70
2024/04/19 03:10:39;;;;;;;4.35;2.30;;;;;;;4.17;68.05;92691.78;2028415;70;20168;-70
2024/04/19 03:13:10;;;;;;;1.98;1.77;;;;;;;4.17;68.35;92694.56;2028236;70;20143;-73
2024/04/19 03:15:37;;;;;;;2.40;1.90;;;;;;;4.15;67.91;92694.41;2028004;70;20221;-71
2024/04/19 03:18:04;;;;;;;2.13;1.92;;;;;;;4.09;68.18;92689.06;2027868;70;20183;-70
2024/04/19 03:20:30;;;;;;;2.72;1.52;;;;;;;4.11;67.53;92682.91;2028401;70;20275;-71
2024/04/19 03:22:55;;;;;;;1.42;1.30;;;;;;;4.00;68.07;92692.47;2028118;70;20608;-69
2024/04/19 03:25:21;;;;;;;1.90;1.50;;;;;;;3.97;67.51;92699.19;2028363;70;20172;-70
2024/04/19 03:27:51;;;;;;;1.85;1.40;;;;;;;3.86;67.54;92683.66;2028108;70;20148;-70
2024/04/19 03:30:29;;;;;;;2.10;1.52;;;;;;;3.51;66.71;92622.25;2028245;70;20144;-72
2024/04/19 03:32:55;;;;;;;2.33;1.33;;;;;;;3.91;67.19;92688.25;2028180;70;20244;-72
2024/04/19 03:35:21;;;;;;;2.97;1.48;;;;;;;3.99;67.65;92691.75;2027976;70;20156;-70
2024/04/19 03:37:47;;;;;;;130.32;52.13;;;;;;;3.99;67.46;92688.22;2028276;70;20261;-69
2024/04/19 03:40:13;;;;;;;24.25;10.68;;;;;;;3.97;68.00;92677.63;2027948;70;20176;-70
2024/04/19 03:42:45;;;;;;;6.95;3.67;;;;;;;3.93;67.97;92674.50;2028052;70;20164;-70
2024/04/19 03:47:56;;;;;;;4.10;2.30;;;;;;;3.89;68.30;92676.19;2025097;70;20160;-70
2024/04/19 03:50:22;;;;;;;3.70;2.00;;;;;;;3.83;68.97;92670.88;2028767;70;20157;-71
2024/04/19 03:52:47;;;;;;;3.38;2.13;;;;;;;3.89;68.05;92667.84;2028691;70;20164;-72
2024/04/19 03:55:13;;;;;;;2.97;2.03;;;;;;;3.88;67.59;92658.03;2028728;70;20184;-73
2024/04/19 03:57:38;;;;;;;5.40;1.80;;;;;;;3.66;68.67;92662.44;2028412;70;20521;-72
2024/04/19 04:00:05;;;;;;;1.98;1.40;;;;;;;3.81;67.79;92667.91;2028651;70;20224;-71
2024/04/19 04:02:38;;;;;;;2.30;1.85;;;;;;;3.79;68.40;92665.69;2028666;70;20152;-72
2024/04/19 04:05:04;;;;;;;2.35;1.70;;;;;;;3.68;68.29;92651.50;2028677;70;20525;-71
2024/04/19 04:07:30;;;;;;;2.67;1.73;;;;;;;3.83;66.46;92657.69;2028703;70;20247;-70
2024/04/19 04:09:56;;;;;;;2.28;1.73;;;;;;;3.78;67.51;92661.44;2028663;70;20152;-71
2024/04/19 04:12:21;;;;;;;2.13;1.50;;;;;;;3.73;68.00;92653.31;2028743;70;20184;-72
2024/04/19 04:14:47;;;;;;;2.10;1.60;;;;;;;3.85;67.34;92659.16;2028785;70;20538;-72
2024/04/19 04:17:13;;;;;;;2.83;2.30;;;;;;;3.59;69.08;92654.91;2029137;70;20149;-72
2024/04/19 04:19:38;;;;;;;3.80;2.22;;;;;;;3.91;67.59;92659.69;2028878;70;20221;-71
2024/04/19 04:22:04;;;;;;;2.70;2.05;;;;;;;3.86;68.13;92653.03;2028575;70;20715;-70
2024/04/19 04:24:30;;;;;;;3.00;1.80;;;;;;;3.85;68.37;92648.78;2028685;70;20161;-70
2024/04/19 04:26:56;;;;;;;3.40;1.85;;;;;;;3.79;68.54;92645.47;2025091;70;20235;-72
2024/04/19 04:29:24;;;;;;;3.15;1.77;;;;;;;3.88;67.96;92646.88;2028679;70;20156;-71
2024/04/19 04:31:50;;;;;;;6.90;2.17;;;;;;;3.83;69.16;92651.38;2024823;70;20160;-70
2024/04/19 04:34:15;;;;;;;3.50;2.22;;;;;;;3.96;68.98;92662.22;2028572;70;20152;-70
2024/04/19 04:36:42;;;;;;;8.50;4.70;;;;;;;3.87;68.37;92656.53;2028756;70;20591;-72
2024/04/19 04:39:07;;;;;;;5.20;3.15;;;;;;;3.92;69.03;92661.88;2028624;70;20160;-70
2024/04/19 04:41:39;;;;;;;5.63;3.00;;;;;;;3.93;69.66;92662.63;2027829;70;20518;-70
2024/04/19 04:44:07;;;;;;;6.35;2.88;;;;;;;4.05;68.15;92669.97;2028565;70;20598;-71
2024/04/19 04:46:36;;;;;;;7.35;2.70;;;;;;;4.08;68.75;92663.25;2028310;70;20243;-70
2024/04/19 04:49:04;;;;;;;6.75;2.97;;;;;;;4.09;69.29;92658.41;2028335;70;20188;-70
2024/04/19 04:51:29;;;;;;;3.67;2.65;;;;;;;4.14;68.39;92665.81;2028623;70;20286;-73
2024/04/19 04:53:55;;;;;;;5.95;3.28;;;;;;;4.08;68.88;92656.94;2022424;70;20177;-71
2024/04/19 04:56:20;;;;;;;5.07;2.88;;;;;;;4.12;68.66;92657.25;2028567;70;20172;-69
2024/04/19 04:58:46;;;;;;;2.60;2.03;;;;;;;4.16;67.83;92657.59;2028378;70;20179;-69
2024/04/19 05:01:12;;;;;;;4.25;2.10;;;;;;;4.09;67.75;92661.19;2024966;70;20188;-72
2024/04/19 05:03:37;;;;;;;4.32;2.10;;;;;;;3.93;68.79;92652.22;2028337;70;20156;-70
2024/04/19 05:06:03;;;;;;;3.53;2.47;;;;;;;4.31;67.29;92646.34;2028654;70;20149;-72
2024/04/19 05:08:29;;;;;;;2.88;2.10;;;;;;;4.41;66.73;92657.56;2025165;70;20582;-72
2024/04/19 05:10:54;;;;;;;2.80;1.85;;;;;;;4.32;65.96;92642.22;2028638;70;20155;-70
2024/04/19 05:13:20;;;;;;;3.72;2.05;;;;;;;4.51;66.18;92643.72;2028706;70;20156;-71
2024/04/19 05:15:49;;;;;;;3.28;2.10;;;;;;;4.41;66.01;92601.81;2028642;70;20164;-70
2024/04/19 05:18:18;;;;;;;3.80;2.25;;;;;;;4.73;65.04;92650.38;2028659;70;20153;-70
2024/04/19 05:20:46;;;;;;;3.25;1.67;;;;;;;4.54;65.05;92648.91;2028348;70;20571;-71
2024/04/19 05:23:12;;;;;;;3.75;1.65;;;;;;;4.68;64.99;92654.88;2028456;70;20172;-70
2024/04/19 05:25:38;;;;;;;5.25;2.10;;;;;;;4.39;66.21;92651.06;2028521;70;20152;-70
2024/04/19 05:28:04;;;;;;;4.78;2.50;;;;;;;4.66;67.00;92643.56;2028607;70;20225;-69
2024/04/19 05:30:29;;;;;;;4.70;2.53;;;;;;;4.93;66.21;92656.84;2028392;70;20534;-70
2024/04/19 05:32:56;;;;;;;4.80;2.22;;;;;;;4.89;66.95;92648.16;2024816;70;20141;-70
2024/04/19 05:35:22;;;;;;;4.78;2.40;;;;;;;5.08;65.05;92649.03;2028371;70;20168;-71
2024/04/19 05:37:48;;;;;;;2.30;1.85;;;;;;;5.12;65.36;92650.66;2028546;70;20141;-70
2024/04/19 05:40:13;;;;;;;4.25;1.90;;;;;;;5.24;65.23;92651.63;2025000;70;20153;-70
2024/04/19 05:42:39;;;;;;;3.03;1.90;;;;;;;5.21;65.72;92656.31;2028365;70;20149;-72
2024/04/19 05:45:05;;;;;;;4.97;2.58;;;;;;;5.03;65.32;92655.59;2028230;70;20164;-70
2024/04/19 05:47:30;;;;;;;5.13;2.45;;;;;;;4.28;68.94;92660.66;2028450;70;20139;-69
2024/04/19 05:49:56;;;;;;;4.90;2.38;;;;;;;4.77;67.43;92647.91;2024831;70;20627;-69
2024/04/19 05:52:21;;;;;;;4.18;2.40;;;;;;;5.07;67.37;92646.81;2024700;70;20164;-70
2024/04/19 05:54:47;;;;;;;3.50;2.30;;;;;;;5.31;65.48;92651.53;2028439;70;20152;-70
2024/04/19 05:57:13;;;;;;;6.30;2.60;;;;;;;5.57;63.70;92640.94;2024898;70;20153;-70
2024/04/19 05:59:39;;;;;;;3.88;2.67;;;;;;;5.74;64.82;92646.47;2028299;70;20237;-69
2024/04/19 06:02:05;;;;;;;4.80;2.53;;;;;;;5.87;63.71;92642.56;2028299;70;20133;-72
2024/04/19 06:04:34;;;;;;;4.53;2.65;;;;;;;5.89;63.95;92625.94;2028295;70;20156;-73
2024/04/19 06:06:59;;;;;;;6.45;3.83;;;;;;;5.87;63.81;92634.19;2028421;70;20507;-70
2024/04/19 06:09:25;;;;;;;7.75;3.50;;;;;;;6.21;62.39;92632.56;2028230;70;20292;-72
2024/04/19 06:11:51;;;;;;;5.00;2.88;;;;;;;6.22;62.33;92634.75;2028452;70;20236;-73
2024/04/19 06:14:16;;;;;;;6.32;2.72;;;;;;;6.14;61.75;92645.34;2028676;70;20264;-76
2024/04/19 06:16:42;;;;;;;6.47;3.03;;;;;;;6.48;60.21;92638.81;2028484;70;20490;-73
2024/04/19 06:19:09;;;;;;;4.47;2.30;;;;;;;6.02;60.22;92633.25;2028594;70;20196;-71
2024/04/19 06:21:34;;;;;;;4.50;2.60;;;;;;;6.16;59.28;92623.13;2024985;70;20567;-70
2024/04/19 06:24:00;;;;;;;4.55;2.70;;;;;;;6.33;59.34;92641.88;2028252;70;20264;-70
2024/04/19 06:26:25;;;;;;;6.65;3.95;;;;;;;6.64;58.02;92630.84;2028496;70;20185;-70
2024/04/19 06:28:52;;;;;;;6.50;3.47;;;;;;;6.84;59.60;92634.44;2028462;70;20274;-71
2024/04/19 06:31:18;;;;;;;6.03;3.38;;;;;;;7.03;59.86;92628.09;2028309;70;20483;-71
2024/04/19 06:33:44;;;;;;;8.73;3.30;;;;;;;7.13;60.37;92632.34;2028316;70;20160;-71
2024/04/19 06:36:10;;;;;;;7.05;3.58;;;;;;;6.85;60.48;92633.09;2028713;70;20157;-73
2024/04/19 06:38:37;;;;;;;5.70;3.25;;;;;;;6.67;60.88;92631.75;2024879;70;20141;-70
2024/04/19 06:41:03;;;;;;;6.63;3.20;;;;;;;6.70;61.57;92630.59;2022236;70;20459;-72
2024/04/19 06:43:28;;;;;;;4.05;2.75;;;;;;;6.46;60.87;92630.28;2028338;70;20620;-74
2024/04/19 06:45:58;;;;;;;7.53;3.25;;;;;;;6.93;59.43;92630.91;2028510;70;20540;-74
2024/04/19 06:48:24;;;;;;;4.82;3.00;;;;;;;6.59;59.37;92632.63;2028637;70;20156;-70
2024/04/19 06:50:50;;;;;;;5.45;3.13;;;;;;;7.21;59.06;92628.66;2028624;70;20728;-71
2024/04/19 06:53:15;;;;;;;5.10;2.97;;;;;;;7.45;58.31;92616.38;2028615;70;20239;-72
2024/04/19 06:55:41;;;;;;;4.10;2.40;;;;;;;7.59;57.79;92620.19;2028197;70;20149;-72
2024/04/19 06:58:07;;;;;;;5.35;2.78;;;;;;;7.71;58.30;92620.31;2024784;70;20201;-73
2024/04/19 07:00:37;;;;;;;4.38;2.50;;;;;;;7.89;57.09;92621.56;2028315;70;20169;-72
2024/04/19 07:03:03;;;;;;;4.32;2.80;;;;;;;7.88;54.89;92622.91;2028471;70;20559;-71
2024/04/19 07:05:29;;;;;;;3.38;2.20;;;;;;;7.93;54.74;92623.94;2028202;70;20137;-72
2024/04/19 07:07:54;;;;;;;2.38;1.90;;;;;;;7.61;55.64;92625.22;2028354;70;20225;-72
2024/04/19 07:10:22;;;;;;;3.15;1.90;;;;;;;7.94;54.13;92628.19;2028424;70;20148;-74
2024/04/19 07:12:51;;;;;;;2.75;1.88;;;;;;;7.57;53.65;92606.06;2028148;70;20161;-75
2024/04/19 07:15:18;;;;;;;9.73;5.40;;;;;;;7.96;53.09;92622.00;2024623;70;20172;-72
2024/04/19 07:17:45;;;;;;;1.83;1.23;;;;;;;7.99;50.81;92609.59;2028426;70;20164;-70
2024/04/19 07:20:10;;;;;;;4.50;2.00;;;;;;;8.73;51.67;92593.53;2028420;70;20279;-74
2024/04/19 07:22:36;;;;;;;1.48;1.30;;;;;;;8.45;51.10;92581.19;2028126;70;20312;-70
2024/04/19 07:25:02;;;;;;;2.10;1.63;;;;;;;8.46;50.19;92593.13;2028225;70;20190;-71
2024/04/19 07:27:30;;;;;;;2.33;1.30;;;;;;;8.75;49.90;92592.94;2028361;70;20525;-71
2024/04/19 07:29:56;;;;;;;1.98;1.10;;;;;;;8.91;48.92;92591.91;2027919;70;20248;-71
2024/04/19 07:32:22;;;;;;;2.40;1.50;;;;;;;9.29;48.47;92583.75;2028246;70;20235;-70
2024/04/19 07:34:48;;;;;;;3.78;1.52;;;;;;;8.61;49.15;92581.50;2028249;70;20240;-71
2024/04/19 07:37:14;;;;;;;2.15;1.60;;;;;;;9.37;49.16;92578.66;2028201;70;20232;-71
2024/04/19 07:39:39;;;;;;;1.63;1.27;;;;;;;9.01;48.42;92575.00;2028115;70;20667;-71
2024/04/19 07:42:05;;;;;;;2.53;1.45;;;;;;;9.03;48.42;92569.53;2028420;70;20191;-71
2024/04/19 07:44:31;;;;;;;2.63;1.40;;;;;;;8.94;48.82;92569.59;2028412;70;20191;-73
2024/04/19 07:46:56;;;;;;;3.97;1.52;;;;;;;9.49;48.14;92570.28;2028027;70;20183;-74
2024/04/19 07:49:22;;;;;;;3.53;1.20;;;;;;;9.66;48.04;92564.28;2028314;70;20183;-77
2024/04/19 07:51:48;;;;;;;2.90;1.38;;;;;;;10.08;47.61;92562.63;2028416;70;20225;-76
2024/04/19 07:54:13;;;;;;;2.08;1.38;;;;;;;10.02;47.54;92562.25;2028369;70;20156;-72
2024/04/19 07:56:41;;;;;;;1.90;1.27;;;;;;;10.19;47.54;92554.19;2028246;70;20162;-73
2024/04/19 07:59:08;;;;;;;2.35;1.33;;;;;;;10.42;47.19;92556.25;2024751;70;20217;-71
2024/04/19 08:01:34;;;;;;;2.50;1.30;;;;;;;10.48;46.67;92541.81;2027834;70;20156;-73
2024/04/19 08:03:59;;;;;;;1.92;1.27;;;;;;;10.58;45.96;92556.50;2024453;70;20141;-72
2024/04/19 08:06:25;;;;;;;1.65;1.50;;;;;;;9.48;46.57;92555.47;2028119;70;20191;-73
2024/04/19 08:08:51;;;;;;;1.52;1.20;;;;;;;9.15;46.96;92547.09;2027986;70;20169;-72
2024/04/19 08:11:16;;;;;;;9.45;1.40;;;;;;;9.79;47.13;92532.78;2028286;70;20208;-73
2024/04/19 08:13:42;;;;;;;1.50;1.20;;;;;;;10.21;46.90;92539.50;2028123;70;20170;-73
2024/04/19 08:16:08;;;;;;;1.60;1.30;;;;;;;9.90;46.12;92543.31;2027943;70;20209;-73
2024/04/19 08:18:34;;;;;;;1.80;1.20;;;;;;;10.10;46.26;92538.16;2027870;70;20244;-72
2024/04/19 08:21:00;;;;;;;3.60;1.38;;;;;;;10.55;45.40;92528.84;2028163;70;20472;-73
2024/04/19 08:23:26;;;;;;;1.33;1.02;;;;;;;10.76;45.14;92534.28;2028031;70;20148;-73
2024/04/19 08:25:52;;;;;;;2.47;1.40;;;;;;;10.47;44.37;92526.28;2028696;70;20179;-74
2024/04/19 08:28:18;;;;;;;2.05;1.40;;;;;;;10.61;43.62;92535.53;2028210;70;20125;-73
2024/04/19 08:30:43;;;;;;;2.05;1.33;;;;;;;10.99;43.17;92529.91;2024533;70;20207;-74
2024/04/19 08:33:09;;;;;;;1.50;1.30;;;;;;;11.34;43.63;92527.66;2024658;70;20148;-74
2024/04/19 08:35:34;;;;;;;1.10;1.00;;;;;;;11.52;43.18;92524.38;2028664;70;20147;-75
2024/04/19 08:38:00;;;;;;;2.08;1.30;;;;;;;11.63;42.52;92520.75;2028717;70;20270;-74
2024/04/19 08:40:28;;;;;;;2.10;1.60;;;;;;;11.31;41.83;92520.44;2028739;70;20582;-72
2024/04/19 08:42:56;;;;;;;2.42;1.50;;;;;;;10.74;40.49;92525.72;2028604;70;20148;-73
2024/04/19 08:45:21;;;;;;;2.15;1.50;;;;;;;11.13;40.84;92514.56;2028468;70;20140;-73
2024/04/19 08:47:49;;;;;;;2.50;1.60;;;;;;;11.51;41.03;92514.47;2028595;70;20509;-72
2024/04/19 08:50:16;;;;;;;3.00;1.30;;;;;;;11.57;40.55;92507.06;2028345;70;20567;-72
2024/04/19 08:52:45;;;;;;;2.63;1.20;;;;;;;11.87;40.16;92508.00;2028720;70;20153;-71
2024/04/19 08:55:12;;;;;;;5.13;1.60;;;;;;;11.89;39.58;92505.25;2028604;70;20149;-73
2024/04/19 08:57:44;;;;;;;1.63;0.95;;;;;;;11.09;37.49;92480.53;2028672;70;20616;-74
2024/04/19 09:00:10;;;;;;;1.00;0.90;;;;;;;10.46;37.05;92495.94;2028474;70;20275;-72
2024/04/19 09:02:35;;;;;;;1.17;0.90;;;;;;;10.46;36.75;92487.50;2028700;70;20121;-72
2024/04/19 09:05:01;;;;;;;1.25;0.77;;;;;;;10.85;36.81;92491.13;2028623;70;20301;-72
2024/04/19 09:07:30;;;;;;;1.33;0.80;;;;;;;11.68;35.84;92489.34;2028474;70;20590;-73
2024/04/19 09:09:57;;;;;;;0.95;0.85;;;;;;;11.40;34.22;92487.81;2028485;70;20237;-72
2024/04/19 09:12:23;;;;;;;1.45;0.93;;;;;;;11.30;34.78;92487.25;2028684;70;20156;-72
2024/04/19 09:14:49;;;;;;;1.33;0.82;;;;;;;11.44;34.55;92479.56;2025049;70;20317;-72
2024/04/19 09:17:15;;;;;;;1.55;0.88;;;;;;;11.99;35.16;92478.94;2028594;70;20175;-73
2024/04/19 09:19:42;;;;;;;1.60;1.40;;;;;;;11.39;34.35;92472.25;2028553;70;20160;-73
2024/04/19 09:22:07;;;;;;;0.77;0.77;;;;;;;11.16;34.57;92470.31;2028455;70;20148;-70
2024/04/19 09:24:33;;;;;;;1.50;0.98;;;;;;;11.80;34.55;92480.06;2024779;70;20137;-71
2024/04/19 09:27:04;;;;;;;2.90;0.90;;;;;;;11.68;34.36;92475.25;2025051;70;20292;-72
2024/04/19 09:29:30;;;;;;;1.60;0.80;;;;;;;11.55;35.00;92466.75;2028390;70;20229;-73
2024/04/19 09:31:57;;;;;;;0.82;0.70;;;;;;;11.62;34.36;92457.25;2028536;70;20228;-73
2024/04/19 09:34:22;;;;;;;1.00;0.90;;;;;;;12.06;33.95;92458.16;2028529;70;20161;-71
2024/04/19 09:36:48;;;;;;;1.17;0.70;;;;;;;12.51;34.77;92451.94;2028501;70;20155;-74
2024/04/19 09:39:15;;;;;;;1.50;0.90;;;;;;;12.75;35.13;92458.06;2028674;70;20275;-71
2024/04/19 09:41:41;;;;;;;1.23;0.80;;;;;;;12.50;35.92;92465.31;2028178;70;20612;-71
2024/04/19 09:44:11;;;;;;;0.80;0.73;;;;;;;12.86;35.32;92462.84;2028560;70;20221;-71
2024/04/19 09:46:40;;;;;;;1.42;0.70;;;;;;;12.87;31.88;92450.16;2028354;70;20163;-70
2024/04/19 09:49:08;;;;;;;0.55;0.55;;;;;;;12.77;33.30;92460.97;2025626;70;20184;-71
2024/04/19 09:51:40;;;;;;;0.70;0.60;;;;;;;12.70;33.12;92451.47;2028589;70;20156;-71
2024/04/19 09:54:10;;;;;;;0.70;0.70;;;;;;;12.16;34.42;92444.56;2028558;70;20210;-72
2024/04/19 09:56:56;;;;;;;0.85;0.60;;;;;;;11.85;33.22;92436.63;2028433;70;20117;-71
2024/04/19 09:59:24;;;;;;;1.10;0.80;;;;;;;12.96;33.31;92452.00;2028444;70;20145;-73
2024/04/19 10:01:51;;;;;;;1.70;0.80;;;;;;;11.90;34.44;92441.84;2028284;70;20153;-74
2024/04/19 10:04:17;;;;;;;0.70;0.68;;;;;;;13.25;35.70;92445.66;2028481;70;20603;-74
2024/04/19 10:06:44;;;;;;;1.50;1.00;;;;;;;12.39;33.05;92432.31;2028212;70;20172;-73
2024/04/19 10:09:17;;;;;;;1.25;0.70;;;;;;;13.10;32.55;92415.97;2028437;70;20633;-71
2024/04/19 10:11:45;;;;;;;0.50;0.50;;;;;;;12.41;32.86;92416.19;2028443;70;20191;-72
2024/04/19 10:14:11;;;;;;;2.55;0.80;;;;;;;13.79;32.15;92423.31;2028631;70;20229;-73
2024/04/19 10:16:41;;;;;;;0.95;0.63;;;;;;;13.69;33.65;92415.84;2028407;70;20152;-74
2024/04/19 10:19:07;;;;;;;2.13;0.60;;;;;;;12.80;33.12;92406.78;2028424;70;20149;-74
2024/04/19 10:21:34;;;;;;;0.88;0.70;;;;;;;12.68;33.13;92411.84;2028372;70;20168;-74
2024/04/19 10:24:11;;;;;;;2.78;1.00;;;;;;;12.20;31.30;92386.25;2028426;70;20581;-73
2024/04/19 10:26:38;;;;;;;1.70;0.50;;;;;;;12.37;30.73;92389.84;2028470;70;20153;-73
2024/04/19 10:29:05;;;;;;;0.52;0.52;;;;;;;12.83;30.42;92382.91;2028100;70;20208;-72
2024/04/19 10:31:33;;;;;;;0.50;0.50;;;;;;;13.64;30.93;92382.38;2024835;70;20201;-72
2024/04/19 10:33:59;;;;;;;0.60;0.50;;;;;;;12.62;31.42;92372.00;2028375;70;20153;-73
2024/04/19 10:36:30;;;;;;;0.50;0.50;;;;;;;13.26;31.50;92367.97;2028408;70;20156;-73
2024/04/19 10:38:57;;;;;;;0.60;0.40;;;;;;;13.47;32.39;92361.13;2028315;70;20567;-73
2024/04/19 10:41:23;;;;;;;2.20;0.50;;;;;;;13.95;32.48;92367.44;2028339;70;20205;-72
2024/04/19 10:43:49;;;;;;;1.13;0.43;;;;;;;13.91;30.66;92361.63;2028378;70;20159;-74
2024/04/19 10:46:17;;;;;;;0.47;0.47;;;;;;;13.68;31.30;92363.47;2028019;70;20248;-74
2024/04/19 10:48:43;;;;;;;1.02;0.40;;;;;;;13.87;31.98;92355.78;2028530;70;20609;-72
2024/04/19 10:51:13;;;;;;;1.13;0.88;;;;;;;14.85;31.12;92357.75;2028314;70;20160;-73
2024/04/19 10:53:39;;;;;;;1.52;0.70;;;;;;;14.06;30.02;92346.69;2024788;70;20272;-72
2024/04/19 10:56:05;;;;;;;4.10;2.33;;;;;;;13.28;30.79;92342.59;2028048;70;20137;-72
2024/04/19 10:58:31;;;;;;;1.02;0.50;;;;;;;12.68;31.39;92335.59;2028276;70;20141;-73
2024/04/19 11:00:57;;;;;;;0.68;0.38;;;;;;;12.12;31.58;92331.50;2028138;70;20141;-71
2024/04/19 11:03:24;;;;;;;2.67;0.93;;;;;;;12.38;31.41;92329.97;2024532;70;20179;-71
2024/04/19 11:05:50;;;;;;;5.82;4.60;;;;;;;11.50;31.70;92310.03;2028238;70;20223;-71
2024/04/19 11:08:17;;;;;;;8.75;7.57;;;;;;;12.51;31.35;92302.28;2028182;70;20160;-72
2024/04/19 11:10:44;;;;;;;0.50;0.50;;;;;;;11.81;31.29;92286.91;2028204;70;20213;-72
2024/04/19 11:13:09;;;;;;;1.05;0.70;;;;;;;11.68;32.09;92285.56;2027812;70;20244;-72
2024/04/19 11:15:35;;;;;;;0.63;0.50;;;;;;;12.06;31.94;92280.41;2024617;70;20152;-72
2024/04/19 11:18:00;;;;;;;0.57;0.57;;;;;;;12.66;32.15;92274.09;2028205;70;20156;-71
2024/04/19 11:20:26;;;;;;;1.52;0.60;;;;;;;11.66;32.40;92252.38;2028106;70;20153;-72
2024/04/19 11:22:52;;;;;;;1.35;0.60;;;;;;;12.41;32.27;92263.03;2028051;70;20261;-73
2024/04/19 11:25:18;;;;;;;0.95;0.60;;;;;;;13.11;30.60;92258.44;2023589;70;20223;-73
2024/04/19 11:27:44;;;;;;;1.08;0.60;;;;;;;13.20;31.72;92246.13;2023533;70;20674;-75
2024/04/19 11:30:10;;;;;;;0.60;0.30;;;;;;;13.34;31.29;92243.22;2026998;70;20169;-71
2024/04/19 11:32:35;;;;;;;0.73;0.40;;;;;;;13.77;31.22;92240.09;2027435;70;20176;-73
2024/04/19 11:35:01;;;;;;;0.90;0.40;;;;;;;13.92;31.20;92233.63;2027490;70;20141;-71
2024/04/19 11:37:27;;;;;;;1.70;0.40;;;;;;;13.97;31.27;92234.53;2027791;70;20638;-71
2024/04/19 11:39:53;;;;;;;1.10;0.38;;;;;;;14.18;31.23;92231.16;2027824;70;20186;-75
2024/04/19 11:42:21;;;;;;;0.32;0.30;;;;;;;14.20;31.88;92219.16;2027798;70;20262;-74